LRI5009 VHHH-WADD
Flight info
| Callsign | LRI5009 |
|---|---|
| Flight time | N/A |
| Altitude | 31000 |
| Route | DALOL V652 UNTUL/N0519F300 V652 SABNO/N0515F310 A583 AKOTA/N0511F320 M754 VINIK M522 ELANG/N0511F330 M522 DOBMA |
| Aircraft | B77L/H-SDE1E2E3FGHIJ2J3J4J5M1RWXY/LB1D1 |
Departure
| Time | 2026-04-30 06:58 |
|---|---|
| Airport | Hong Kong International Airport (VHHH) |
Arrival
| Time | N/A |
|---|---|
| Airport | Denpasar I Gusti Ngurah Rai International Airport (WADD) |
| Time | Latitude | Longitude | Altitude | Speed | Heading |
|---|---|---|---|---|---|
| 2026-04-30 06:38 | 22.30416 | 113.90746 | 41 ft | 0 kts | 71° |
| 2026-04-30 06:47 | 22.30412 | 113.90732 | 41 ft | 4 kts | 71° |
| 2026-04-30 06:47 | 22.30403 | 113.90705 | 39 ft | 4 kts | 71° |
| 2026-04-30 06:48 | 22.30395 | 113.90680 | 39 ft | 2 kts | 71° |
| 2026-04-30 06:48 | 22.30385 | 113.90658 | 38 ft | 4 kts | 40° |
| 2026-04-30 06:48 | 22.30369 | 113.90650 | 38 ft | 4 kts | 351° |
| 2026-04-30 06:48 | 22.30344 | 113.90657 | 39 ft | 4 kts | 340° |
| 2026-04-30 06:49 | 22.30339 | 113.90659 | 39 ft | 0 kts | 341° |
| 2026-04-30 06:52 | 22.30368 | 113.90648 | 41 ft | 11 kts | 341° |
| 2026-04-30 06:53 | 22.30444 | 113.90620 | 41 ft | 12 kts | 341° |
| 2026-04-30 06:53 | 22.30521 | 113.90590 | 41 ft | 12 kts | 340° |
| 2026-04-30 06:53 | 22.30597 | 113.90561 | 41 ft | 12 kts | 340° |
| 2026-04-30 06:53 | 22.30673 | 113.90531 | 41 ft | 12 kts | 340° |
| 2026-04-30 06:54 | 22.30750 | 113.90501 | 41 ft | 12 kts | 340° |
| 2026-04-30 06:54 | 22.30831 | 113.90470 | 41 ft | 13 kts | 340° |
| 2026-04-30 06:54 | 22.30920 | 113.90438 | 41 ft | 14 kts | 342° |
| 2026-04-30 06:54 | 22.30993 | 113.90376 | 41 ft | 15 kts | 276° |
| 2026-04-30 06:55 | 22.30968 | 113.90266 | 41 ft | 16 kts | 248° |
| 2026-04-30 06:55 | 22.30930 | 113.90150 | 41 ft | 17 kts | 250° |
| 2026-04-30 06:55 | 22.30889 | 113.90024 | 41 ft | 18 kts | 250° |
| 2026-04-30 06:55 | 22.30850 | 113.89892 | 41 ft | 17 kts | 266° |
| 2026-04-30 06:56 | 22.30935 | 113.89813 | 41 ft | 17 kts | 339° |
| 2026-04-30 06:56 | 22.30955 | 113.89804 | 41 ft | 0 kts | 339° |
| 2026-04-30 06:56 | 22.30990 | 113.89790 | 41 ft | 8 kts | 339° |
| 2026-04-30 06:57 | 22.31043 | 113.89770 | 41 ft | 8 kts | 347° |
| 2026-04-30 06:57 | 22.31099 | 113.89815 | 38 ft | 20 kts | 66° |
| 2026-04-30 06:57 | 22.31195 | 113.90112 | 40 ft | 74 kts | 71° |
| 2026-04-30 06:57 | 22.31451 | 113.90886 | 42 ft | 142 kts | 70° |
| 2026-04-30 06:58 | 22.31838 | 113.92086 | 92 ft | 189 kts | 69° |
| 2026-04-30 06:58 | 22.32239 | 113.93429 | 803 ft | 183 kts | 68° |
| 2026-04-30 06:58 | 22.32659 | 113.94730 | 1525 ft | 184 kts | 69° |
| 2026-04-30 06:58 | 22.33093 | 113.96060 | 2033 ft | 189 kts | 68° |
| 2026-04-30 06:59 | 22.33494 | 113.97408 | 2574 ft | 190 kts | 76° |
| 2026-04-30 06:59 | 22.33729 | 113.98821 | 3119 ft | 191 kts | 77° |
| 2026-04-30 06:59 | 22.33955 | 114.00284 | 3417 ft | 208 kts | 77° |
| 2026-04-30 06:59 | 22.34212 | 114.01905 | 3612 ft | 230 kts | 78° |
| 2026-04-30 07:00 | 22.34409 | 114.03709 | 3850 ft | 252 kts | 89° |
| 2026-04-30 07:00 | 22.34072 | 114.05625 | 4262 ft | 269 kts | 112° |
| 2026-04-30 07:00 | 22.33072 | 114.07359 | 4819 ft | 276 kts | 136° |
| 2026-04-30 07:00 | 22.31518 | 114.08509 | 5450 ft | 277 kts | 162° |
| 2026-04-30 07:01 | 22.29611 | 114.08862 | 6114 ft | 274 kts | 184° |
| 2026-04-30 07:01 | 22.27695 | 114.08796 | 6718 ft | 279 kts | 185° |
| 2026-04-30 07:01 | 22.25762 | 114.08753 | 7380 ft | 282 kts | 184° |
| 2026-04-30 07:01 | 22.23794 | 114.08711 | 8116 ft | 283 kts | 185° |
| 2026-04-30 07:02 | 22.21816 | 114.08674 | 8799 ft | 286 kts | 185° |
| 2026-04-30 07:02 | 22.19810 | 114.08647 | 9448 ft | 290 kts | 184° |
| 2026-04-30 07:02 | 22.17786 | 114.08736 | 10038 ft | 296 kts | 171° |
| 2026-04-30 07:02 | 22.15875 | 114.09702 | 10359 ft | 319 kts | 142° |
| 2026-04-30 07:03 | 22.14475 | 114.11667 | 10495 ft | 343 kts | 119° |
| 2026-04-30 07:03 | 22.13386 | 114.14042 | 10648 ft | 364 kts | 117° |
| 2026-04-30 07:03 | 22.12246 | 114.16575 | 10815 ft | 386 kts | 118° |
| 2026-04-30 07:03 | 22.11032 | 114.19219 | 11195 ft | 399 kts | 118° |
| 2026-04-30 07:04 | 22.09763 | 114.21918 | 11723 ft | 407 kts | 119° |
| 2026-04-30 07:04 | 22.08468 | 114.24625 | 12370 ft | 408 kts | 121° |
| 2026-04-30 07:04 | 22.06782 | 114.27086 | 12880 ft | 411 kts | 141° |
| 2026-04-30 07:04 | 22.04484 | 114.28883 | 13411 ft | 409 kts | 149° |
| 2026-04-30 07:05 | 21.99750 | 114.32473 | 14629 ft | 419 kts | 147° |
| 2026-04-30 07:05 | 21.97388 | 114.34338 | 15289 ft | 422 kts | 147° |
| 2026-04-30 07:05 | 21.95016 | 114.36215 | 15898 ft | 425 kts | 147° |
| 2026-04-30 07:06 | 21.92616 | 114.38108 | 16476 ft | 429 kts | 147° |
| 2026-04-30 07:06 | 21.90195 | 114.40015 | 17047 ft | 433 kts | 147° |
| 2026-04-30 07:06 | 21.87748 | 114.41939 | 17622 ft | 436 kts | 147° |
| 2026-04-30 07:06 | 21.85492 | 114.44144 | 17984 ft | 446 kts | 130° |